Flight Track Log - Related Links

Times and Time Zones

All times are in EDT time to prevent confusion due to time zone crossing. See the UAL233 flight status page for this flight to view local times or setup timezone preferences in your user account.


Time Position Orientation Groundspeed Altitude Reporting Facility
EDT Latitude Longitude Course Direction KTS MPH feet Rate Location/Type
Mon 07:42:26 PM 33.9347 -118.4436 55° Northeast 176 203 1,500  Level Los Angeles Center
Mon 07:43:28 PM 33.9250 -118.5375 263° West 243 280 4,200 2,488 Climbing Los Angeles Center
Mon 07:44:00 PM 34.1256 -118.0821 59° Northeast  Level FlightAware Approximate
Mon 07:44:29 PM 33.8906 -118.6119 241° Southwest 285 328 6,600  Level Los Angeles Center
Mon 07:45:00 PM 34.1907 -117.9521 59° Northeast  Level FlightAware Approximate
Mon 07:45:31 PM 33.8125 -118.6003 173° South 292 336 9,200  Level Los Angeles Center
Mon 07:46:00 PM 34.2604 -117.8260 51° Northeast  Level FlightAware Approximate
Mon 07:46:33 PM 33.8167 -118.5139 87° East 301 346 10,600  Level Los Angeles Center
Mon 07:47:00 PM 34.3291 -117.7033 55° Northeast  Level FlightAware Approximate
Mon 07:47:35 PM 33.9022 -118.4533 30° Northeast 350 403 12,200  Level Los Angeles Center
Mon 07:48:37 PM 33.9717 -118.3594 48° Northeast 381 438 14,400 2,177 Climbing Los Angeles Center
Mon 07:49:39 PM 34.0367 -118.2506 54° Northeast 391 450 16,700 2,032 Climbing Los Angeles Center
Mon 07:50:41 PM 34.0994 -118.1394 56° Northeast 397 457 18,600 1,935 Climbing Los Angeles Center
Mon 07:51:43 PM 34.1794 -118.0000 55° Northeast 416 479 20,700 1,839 Climbing Los Angeles Center
Mon 07:52:45 PM 34.2481 -117.8775 56° Northeast 433 498 22,400 1,659 Climbing Los Angeles Center
Mon 07:53:46 PM 34.3172 -117.7528 56° Northeast 443 510 24,100 1,561 Climbing Los Angeles Center
Mon 07:54:48 PM 34.3850 -117.6311 56° Northeast 451 519 25,600 1,403 Climbing Los Angeles Center
Mon 07:55:50 PM 34.4578 -117.5008 56° Northeast 464 534 27,000 1,452 Climbing Los Angeles Center
Mon 07:56:52 PM 34.5444 -117.3422 56° Northeast 473 544 28,600 1,500 Climbing Los Angeles Center
Mon 07:57:54 PM 34.6186 -117.2069 56° Northeast 482 555 30,100 1,500 Climbing Los Angeles Center
Mon 07:58:56 PM 34.6925 -117.0739 56° Northeast 481 554 31,700 1,452 Climbing Los Angeles Center
Mon 07:59:58 PM 34.7642 -116.9428 56° Northeast 473 544 33,100 1,355 Climbing Los Angeles Center
Mon 08:01:00 PM 34.8344 -116.8108 57° Northeast 469 540 34,500 1,306 Climbing Los Angeles Center
Mon 08:02:02 PM 34.9194 -116.6542 56° Northeast 465 535 35,800 1,016 Climbing Los Angeles Center
Mon 08:03:04 PM 34.9961 -116.5286 53° Northeast 465 535 36,600 585 Climbing Los Angeles Center
Mon 08:04:05 PM 35.0850 -116.4200 45° Northeast 454 522 37,000 195 Climbing Los Angeles Center
Mon 08:05:07 PM 35.1733 -116.3114 45° Northeast 452 520 37,000  Level Los Angeles Center
Mon 08:06:09 PM 35.2606 -116.2022 46° Northeast 451 519 37,000  Level Los Angeles Center
Mon 08:07:11 PM 35.3308 -116.1147 45° Northeast 451 519 37,000  Level Los Angeles Center
Mon 08:08:13 PM 35.4511 -115.9600 46° Northeast 449 517 37,000  Level Los Angeles Center
Mon 08:09:15 PM 35.5358 -115.8567 45° Northeast 448 516 37,000  Level Los Angeles Center
Mon 08:10:17 PM 35.6217 -115.7467 46° Northeast 444 511 37,000  Level Los Angeles Center
Mon 08:11:19 PM 35.7081 -115.6378 46° Northeast 443 510 37,000  Level Los Angeles Center
Mon 08:12:21 PM 35.8097 -115.5058 46° Northeast 443 510 37,000  Level Los Angeles Center
Mon 08:13:23 PM 35.8950 -115.3958 46° Northeast 444 511 37,000  Level Los Angeles Center
Mon 08:14:25 PM 35.9808 -115.2864 46° Northeast 445 512 37,000  Level Los Angeles Center
Mon 08:15:27 PM 36.0614 -115.1767 48° Northeast 436 502 37,000  Level Los Angeles Center
Mon 08:16:30 PM 36.1150 -115.0317 65° Northeast 464 534 37,000  Level Los Angeles Center
Mon 08:17:32 PM 36.1658 -114.8472 71° East 473 544 37,000  Level Los Angeles Center
Mon 08:18:34 PM 36.2083 -114.6928 71° East 476 548 37,000  Level Los Angeles Center
Mon 08:19:48 PM 36.2522 -114.5403 70° East 474 545 37,000  Level Los Angeles Center
Mon 08:20:50 PM 36.3039 -114.3564 71° East 472 543 37,000  Level Los Angeles Center
Mon 08:21:52 PM 36.3481 -114.2039 70° East 472 543 37,000  Level Los Angeles Center
Mon 08:22:54 PM 36.3986 -114.0186 71° East 473 544 37,000  Level Los Angeles Center
Mon 08:23:56 PM 36.4406 -113.8639 71° East 473 544 37,000  Level Los Angeles Center
Mon 08:24:59 PM 36.4831 -113.7100 71° East 472 543 37,000  Level Los Angeles Center
Mon 08:26:00 PM 36.5144 -113.5936 71° East 472 543 37,000  Level Los Angeles Center
Mon 08:27:03 PM 36.5644 -113.4103 71° East 470 541 37,000  Level Los Angeles Center
Mon 08:28:05 PM 36.6128 -113.2261 72° East 469 540 37,000  Level Los Angeles Center
Mon 08:29:07 PM 36.6544 -113.0722 71° East 470 541 37,000  Level Los Angeles Center
Mon 08:30:21 PM 36.6947 -112.9192 72° East 468 539 37,000  Level Los Angeles Center
Mon 08:31:23 PM 36.7444 -112.7333 71° East 473 544 37,000  Level Los Angeles Center
Mon 08:32:26 PM 36.7853 -112.5772 72° East 475 547 37,000  Level Los Angeles Center
Mon 08:33:27 PM 36.8264 -112.4208 72° East 477 549 37,000  Level Los Angeles Center
Mon 08:34:30 PM 36.8750 -112.2325 72° East 479 551 37,000  Level Los Angeles Center
Mon 08:35:44 PM 36.9150 -112.0769 72° East 475 547 37,000  Level Los Angeles Center
Mon 08:36:46 PM 36.9636 -111.8883 72° East 476 548 37,000  Level Los Angeles Center
Mon 08:37:48 PM 37.0106 -111.7019 72° East 472 543 37,000  Level Los Angeles Center
Mon 08:38:51 PM 37.0492 -111.5478 73° East 467 537 37,000  Level Los Angeles Center
Mon 08:39:53 PM 37.0878 -111.3939 72° East 466 536 37,000  Level Los Angeles Center
Mon 08:40:55 PM 37.1258 -111.2403 73° East 464 534 37,000  Level Los Angeles Center
Mon 08:41:51 PM 37.1631 -111.0894 73° East 462 532 37,000  Level Denver Center
Mon 08:42:53 PM 37.2008 -110.9356 73° East 464 534 37,000  Level Denver Center
Mon 08:43:54 PM 37.2389 -110.7808 73° East 466 536 37,000  Level Denver Center
Mon 08:44:56 PM 37.2761 -110.6242 73° East 470 541 37,000  Level Denver Center
Mon 08:45:57 PM 37.3147 -110.4672 73° East 471 542 37,000  Level Denver Center
Mon 08:46:59 PM 37.3525 -110.3097 73° East 474 545 37,000  Level Denver Center
Mon 08:48:00 PM 37.3953 -110.1289 73° East 471 542 37,000  Level Denver Center
Mon 08:49:02 PM 37.4319 -109.9781 73° East 470 541 37,000  Level Denver Center
Mon 08:50:03 PM 37.5053 -109.8222 59° Northeast 465 535 37,000  Level Denver Center
Mon 08:51:05 PM 37.5769 -109.6978 54° Northeast 459 528 37,000  Level Denver Center
Mon 08:52:06 PM 37.6617 -109.5522 54° Northeast 460 529 37,000  Level Denver Center
Mon 08:53:08 PM 37.7328 -109.4261 54° Northeast 461 531 37,000  Level Denver Center
Mon 08:54:09 PM 37.8056 -109.3011 54° Northeast 460 529 37,000  Level Denver Center
Mon 08:55:11 PM 37.8906 -109.1547 54° Northeast 461 531 37,000  Level Denver Center
Mon 08:56:12 PM 37.9619 -109.0272 55° Northeast 463 533 37,000  Level Denver Center
Mon 08:57:13 PM 38.0331 -108.8989 55° Northeast 463 533 37,000  Level Denver Center
Mon 08:58:15 PM 38.1192 -108.7444 55° Northeast 466 536 37,000  Level Denver Center
Mon 08:59:16 PM 38.1897 -108.6147 55° Northeast 468 539 37,000  Level Denver Center
Mon 09:00:18 PM 38.2728 -108.4669 54° Northeast 463 533 37,000  Level Denver Center
Mon 09:01:19 PM 38.3442 -108.3375 55° Northeast 464 534 37,000  Level Denver Center
Mon 09:02:21 PM 38.4150 -108.2094 55° Northeast 463 533 37,000  Level Denver Center
Mon 09:03:22 PM 38.4978 -108.0583 55° Northeast 467 537 37,000  Level Denver Center
Mon 09:04:24 PM 38.5667 -107.9308 55° Northeast 461 531 37,000  Level Denver Center
Mon 09:05:25 PM 38.6483 -107.7797 55° Northeast 462 532 37,000  Level Denver Center
Mon 09:06:27 PM 38.7178 -107.6514 55° Northeast 460 529 37,000  Level Denver Center
Mon 09:07:28 PM 38.7978 -107.5031 55° Northeast 457 526 37,000  Level Denver Center
Mon 09:08:30 PM 38.8658 -107.3753 56° Northeast 455 524 37,000  Level Denver Center
Mon 09:09:31 PM 38.9336 -107.2472 56° Northeast 455 524 37,000  Level Denver Center
Mon 09:10:33 PM 39.0125 -107.0972 56° Northeast 455 524 37,000  Level Denver Center
Mon 09:11:34 PM 39.0831 -106.9669 55° Northeast 460 529 37,000  Level Denver Center
Mon 09:12:36 PM 39.1625 -106.8133 56° Northeast 462 532 37,000  Level Denver Center
Mon 09:13:37 PM 39.2319 -106.6836 55° Northeast 461 531 37,000  Level Denver Center
Mon 09:14:39 PM 39.2997 -106.5525 56° Northeast 461 531 37,000  Level Denver Center
Mon 09:15:40 PM 39.3792 -106.3981 56° Northeast 461 531 37,000  Level Denver Center
Mon 09:16:42 PM 39.4444 -106.2711 56° Northeast 464 534 37,000  Level Denver Center
Mon 09:17:43 PM 39.5156 -106.1331 56° Northeast 463 533 37,000  Level Denver Center
Mon 09:18:45 PM 39.6017 -105.9653 56° Northeast 466 536 37,000  Level Denver Center
Mon 09:19:46 PM 39.6719 -105.8256 57° Northeast 464 534 37,000  Level Denver Center
Mon 09:20:48 PM 39.7417 -105.6817 58° Northeast 466 536 37,000  Level Denver Center
Mon 09:21:49 PM 39.8167 -105.5414 55° Northeast 471 542 37,000  Level Denver Center
Mon 09:22:51 PM 39.8925 -105.3886 57° Northeast 469 540 37,000  Level Denver Center
Mon 09:23:52 PM 39.9653 -105.2456 56° Northeast 473 544 37,000  Level Denver Center
Mon 09:24:54 PM 40.0350 -105.1017 58° Northeast 470 541 37,000  Level Denver Center
Mon 09:25:55 PM 40.1142 -104.9453 56° Northeast 478 550 37,000  Level Denver Center
Mon 09:26:57 PM 40.1853 -104.7994 57° Northeast 475 547 37,000  Level Denver Center
Mon 09:27:59 PM 40.2567 -104.6547 57° Northeast 474 545 37,000  Level Denver Center
Mon 09:29:00 PM 40.3275 -104.5075 58° Northeast 477 549 37,000  Level Denver Center
Mon 09:30:02 PM 40.4031 -104.3497 58° Northeast 476 548 37,000  Level Denver Center
Mon 09:31:03 PM 40.4736 -104.2056 57° Northeast 472 543 37,000  Level Denver Center
Mon 09:32:05 PM 40.5525 -104.0597 55° Northeast 466 536 37,000  Level Denver Center
Mon 09:33:07 PM 40.6122 -103.9194 61° Northeast 465 535 37,000  Level Denver Center
Mon 09:34:08 PM 40.6906 -103.7569 58° Northeast 470 541 37,000  Level Denver Center
Mon 09:35:09 PM 40.7475 -103.6361 58° Northeast 478 550 37,000  Level Denver Center
Mon 09:36:11 PM 40.8353 -103.4489 58° Northeast 473 544 37,000  Level Denver Center
Mon 09:37:13 PM 40.9014 -103.3092 58° Northeast 471 542 37,000  Level Denver Center
Mon 09:38:15 PM 40.9658 -103.1703 58° Northeast 468 539 37,000  Level Denver Center
Mon 09:39:16 PM 41.0425 -103.0061 58° Northeast 469 540 37,000  Level Denver Center
Mon 09:40:18 PM 41.1106 -102.8608 58° Northeast 477 549 37,000  Level Denver Center
Mon 09:41:20 PM 41.1875 -102.6950 58° Northeast 474 545 37,000  Level Denver Center
Mon 09:42:22 PM 41.2514 -102.5536 59° Northeast 469 540 37,000  Level Denver Center
Mon 09:43:23 PM 41.3272 -102.3878 59° Northeast 470 541 37,000  Level Denver Center
Mon 09:44:25 PM 41.3917 -102.2458 59° Northeast 467 537 37,000  Level Denver Center
Mon 09:45:27 PM 41.4558 -102.1042 59° Northeast 467 537 37,000  Level Denver Center
Mon 09:47:00 PM 41.5416 -101.8813 59° Northeast  Level FlightAware Approximate
Mon 09:47:30 PM 41.5947 -101.7944 59° Northeast 468 539 37,000  Level Denver Center
Mon 09:49:06 PM 41.7008 -101.5597 59° Northeast 465 535 37,000  Level Minneapolis Center
Mon 09:49:33 PM 41.7328 -101.4850 60° Northeast 469 540 37,000  Level Denver Center
Mon 09:50:35 PM 41.7961 -101.3400 60° Northeast 470 541 37,000  Level Denver Center
Mon 09:51:37 PM 41.8594 -101.1950 60° Northeast 469 540 37,000  Level Denver Center
Mon 09:52:39 PM 41.9317 -101.0261 60° Northeast 468 539 37,000  Level Denver Center
Mon 09:53:40 PM 42.0053 -100.8586 59° Northeast 467 537 37,000  Level Denver Center
Mon 09:54:42 PM 42.0678 -100.7158 59° Northeast 463 533 37,000  Level Denver Center
Mon 09:55:56 PM 42.1386 -100.5475 60° Northeast 462 532 37,000  Level Denver Center
Mon 09:56:58 PM 42.2108 -100.3794 60° Northeast 463 533 37,000  Level Denver Center
Mon 09:57:17 PM 42.2347 -100.3231 60° Northeast 464 534 37,000  Level Minneapolis Center
Mon 09:58:19 PM 42.2989 -100.1717 60° Northeast 464 534 37,000  Level Minneapolis Center
Mon 09:59:02 PM 42.3431 -100.0669 60° Northeast 462 532 37,000  Level Denver Center
Mon 10:00:03 PM 42.4147 -99.8958 60° Northeast 465 535 37,000  Level Denver Center
Mon 10:01:05 PM 42.4781 -99.7461 60° Northeast 464 534 37,000  Level Denver Center
Mon 10:02:07 PM 42.5425 -99.5900 61° Northeast 469 540 37,000  Level Denver Center
Mon 10:02:24 PM 42.5547 -99.5597 61° Northeast 468 539 37,000  Level Minneapolis Center
Mon 10:03:26 PM 42.6186 -99.4044 61° Northeast 469 540 37,000  Level Minneapolis Center
Mon 10:04:27 PM 42.6953 -99.2156 61° Northeast 475 547 37,000  Level Minneapolis Center
Mon 10:05:28 PM 42.7597 -99.0594 61° Northeast 473 544 37,000  Level Minneapolis Center
Mon 10:06:30 PM 42.8233 -98.9011 61° Northeast 475 547 37,000  Level Minneapolis Center
Mon 10:07:31 PM 42.8875 -98.7436 61° Northeast 474 545 37,000  Level Minneapolis Center
Mon 10:08:33 PM 42.9547 -98.5753 61° Northeast 476 548 37,000  Level Minneapolis Center
Mon 10:09:34 PM 43.0181 -98.4178 61° Northeast 476 548 37,000  Level Minneapolis Center
Mon 10:10:35 PM 43.0814 -98.2586 61° Northeast 477 549 37,000  Level Minneapolis Center
Mon 10:11:37 PM 43.1431 -98.0994 62° Northeast 476 548 37,000  Level Minneapolis Center
Mon 10:12:38 PM 43.2058 -97.9394 62° Northeast 478 550 37,000  Level Minneapolis Center
Mon 10:13:39 PM 43.2678 -97.7808 62° Northeast 476 548 37,000  Level Minneapolis Center
Mon 10:14:41 PM 43.3303 -97.6194 62° Northeast 479 551 37,000  Level Minneapolis Center
Mon 10:15:42 PM 43.3925 -97.4581 62° Northeast 480 552 37,000  Level Minneapolis Center
Mon 10:16:43 PM 43.4661 -97.2631 62° Northeast 480 552 37,000  Level Minneapolis Center
Mon 10:17:45 PM 43.5283 -97.1014 62° Northeast 481 554 37,000  Level Minneapolis Center
Mon 10:18:46 PM 43.5894 -96.9386 63° Northeast 481 554 37,000  Level Minneapolis Center
Mon 10:19:47 PM 43.6433 -96.7714 66° East 482 555 37,000  Level Minneapolis Center
Mon 10:20:48 PM 43.6375 -96.5914 93° East 477 549 37,000  Level Minneapolis Center
Mon 10:21:50 PM 43.6150 -96.4150 100° East 471 542 37,000  Level Minneapolis Center
Mon 10:22:51 PM 43.5978 -96.2353 97° East 476 548 37,000  Level Minneapolis Center
Mon 10:23:52 PM 43.5819 -96.0558 97° East 476 548 37,000  Level Minneapolis Center
Mon 10:24:53 PM 43.5611 -95.8411 98° East 477 549 37,000  Level Minneapolis Center
Mon 10:25:54 PM 43.5431 -95.6611 98° East 477 549 37,000  Level Minneapolis Center
Mon 10:26:56 PM 43.5242 -95.4792 98° East 481 554 37,000  Level Minneapolis Center
Mon 10:27:57 PM 43.5064 -95.2997 98° East 478 550 37,000  Level Minneapolis Center
Mon 10:28:58 PM 43.4872 -95.1192 98° East 480 552 37,000  Level Minneapolis Center
Mon 10:29:59 PM 43.4678 -94.9383 98° East 480 552 37,000  Level Minneapolis Center
Mon 10:31:01 PM 43.4483 -94.7564 98° East 484 557 37,000  Level Minneapolis Center
Mon 10:32:02 PM 43.4289 -94.5761 98° East 480 552 37,000  Level Minneapolis Center
Mon 10:33:03 PM 43.4047 -94.3600 99° East 479 551 37,000  Level Minneapolis Center
Mon 10:34:04 PM 43.3833 -94.1986 100° East 477 549 37,000  Level Minneapolis Center
Mon 10:35:05 PM 43.3425 -94.0308 108° East 470 541 37,000 341 Level Minneapolis Center
Mon 10:36:07 PM 43.2981 -93.8661 110° East 466 536 37,700 780 Climbing Minneapolis Center
Mon 10:37:08 PM 43.2339 -93.7189 121° Southeast 453 521 38,600 639 Climbing Minneapolis Center
Mon 10:38:09 PM 43.1536 -93.5417 122° Southeast 460 529 39,000 197 Climbing Minneapolis Center
Mon 10:39:10 PM 43.0872 -93.3944 122° Southeast 461 531 39,000  Level Minneapolis Center
Mon 10:40:12 PM 43.0256 -93.2478 120° Southeast 451 519 39,000  Level Minneapolis Center
Mon 10:41:13 PM 42.9825 -93.0794 109° East 474 545 39,000  Level Minneapolis Center
Mon 10:42:14 PM 42.9403 -92.9081 109° East 480 552 39,000  Level Minneapolis Center
Mon 10:43:15 PM 42.9022 -92.7294 106° East 491 565 39,000  Level Minneapolis Center
Mon 10:43:44 PM 42.8875 -92.6139 100° East 514 592 39,000  Level Chicago Center
Mon 10:44:45 PM 42.8756 -92.4222 95° East 513 590 39,000  Level Chicago Center
Mon 10:45:18 PM 42.8703 -92.3069 94° East 513 590 39,000  Level Minneapolis Center
Mon 10:45:47 PM 42.8636 -92.2300 97° East 515 593 39,000  Level Chicago Center
Mon 10:46:48 PM 42.8508 -92.0383 95° East 512 589 39,000  Level Chicago Center
Mon 10:47:50 PM 42.8383 -91.8486 95° East 509 586 39,000  Level Chicago Center
Mon 10:48:51 PM 42.8253 -91.6517 95° East 505 581 39,000  Level Chicago Center
Mon 10:49:52 PM 42.8086 -91.4300 96° East 505 581 39,000  Level Chicago Center
Mon 10:50:54 PM 42.7961 -91.2639 96° East 513 590 39,000  Level Chicago Center
Mon 10:51:55 PM 42.7811 -91.0747 96° East 508 585 39,000  Level Chicago Center
Mon 10:52:57 PM 42.7631 -90.8475 96° East 508 585 39,000  Level Chicago Center
Mon 10:53:58 PM 42.7481 -90.6572 96° East 512 589 39,000  Level Chicago Center
Mon 10:54:59 PM 42.7314 -90.4678 97° East 511 588 39,000  Level Chicago Center
Mon 10:56:01 PM 42.7161 -90.2756 96° East 516 594 39,000  Level Chicago Center
Mon 10:57:02 PM 42.6994 -90.0833 97° East 519 597 39,000  Level Chicago Center
Mon 10:58:03 PM 42.6794 -89.8597 97° East 515 593 39,000  Level Chicago Center
Mon 10:59:05 PM 42.6617 -89.6683 97° East 511 588 39,000  Level Chicago Center
Mon 11:00:07 PM 42.6439 -89.4800 97° East 505 581 39,000  Level Chicago Center
Mon 11:01:08 PM 42.6272 -89.2944 97° East 497 572 39,000  Level Chicago Center
Mon 11:02:10 PM 42.6183 -89.1100 94° East 490 564 39,000  Level Chicago Center
Mon 11:03:11 PM 42.6186 -88.9267 90° East 488 562 39,000  Level Chicago Center
Mon 11:04:12 PM 42.6158 -88.7475 91° East 480 552 39,000  Level Chicago Center
Mon 11:05:13 PM 42.6119 -88.5400 91° East 474 545 39,000  Level Chicago Center
Mon 11:06:15 PM 42.6083 -88.3650 92° East 467 537 39,000  Level Chicago Center
Mon 11:07:16 PM 42.6036 -88.1872 92° East 471 542 39,000  Level Chicago Center
Mon 11:08:17 PM 42.5989 -88.0100 92° East 473 544 39,000  Level Chicago Center
Mon 11:09:19 PM 42.5950 -87.8278 92° East 481 554 39,000  Level Chicago Center
Mon 11:10:20 PM 42.5917 -87.6439 91° East 488 562 39,000  Level Chicago Center
Mon 11:11:21 PM 42.5869 -87.4569 92° East 495 570 39,000  Level Chicago Center
Mon 11:12:22 PM 42.5814 -87.2439 92° East 494 568 39,000  Level Chicago Center
Mon 11:13:24 PM 42.5758 -87.0575 92° East 496 571 39,000  Level Chicago Center
Mon 11:14:25 PM 42.5708 -86.8747 92° East 490 564 39,000  Level Chicago Center
Mon 11:15:26 PM 42.5658 -86.6925 92° East 487 560 39,000  Level Chicago Center
Mon 11:16:27 PM 42.5611 -86.5289 92° East 480 552 39,000  Level Chicago Center
Mon 11:17:29 PM 42.5561 -86.3514 92° East 475 547 39,000  Level Chicago Center
Mon 11:18:30 PM 42.5481 -86.1397 93° East 473 544 39,000  Level Chicago Center
Mon 11:19:31 PM 42.5417 -85.9631 93° East 475 547 39,000  Level Chicago Center
Mon 11:20:32 PM 42.5356 -85.7853 93° East 476 548 39,000  Level Chicago Center
Mon 11:21:33 PM 42.5281 -85.6092 93° East 475 547 39,000  Level Chicago Center
Mon 11:22:35 PM 42.5219 -85.4289 93° East 480 552 39,000  Level Chicago Center
Mon 11:23:36 PM 42.5153 -85.2531 93° East 473 544 39,000  Level Chicago Center
Mon 11:24:37 PM 42.5081 -85.0775 93° East 470 541 39,000  Level Chicago Center
Mon 11:25:38 PM 42.4992 -84.8653 93° East 470 541 39,000  Level Chicago Center
Mon 11:26:39 PM 42.4919 -84.6869 93° East 474 545 39,000  Level Chicago Center
Mon 11:27:40 PM 42.4825 -84.5106 94° East 473 544 39,000  Level Chicago Center
Mon 11:28:41 PM 42.4744 -84.3325 93° East 474 545 39,000  Level Chicago Center
Mon 11:29:08 PM 42.4664 -84.2483 97° East 468 539 39,000  Level Cleveland Center
Mon 11:30:08 PM 42.4572 -84.0703 94° East 468 539 39,000  Level Cleveland Center
Mon 11:31:08 PM 42.4481 -83.8925 94° East 468 539 39,000  Level Cleveland Center
Mon 11:32:08 PM 42.4403 -83.7206 93° East 462 532 39,000  Level Cleveland Center
Mon 11:33:08 PM 42.4342 -83.5653 93° East 462 532 39,000  Level Cleveland Center
Mon 11:34:08 PM 42.4158 -83.3733 97° East 463 533 39,000  Level Cleveland Center
Mon 11:35:08 PM 42.4050 -83.2125 95° East 463 533 39,000  Level Cleveland Center
Mon 11:36:08 PM 42.3922 -83.0431 96° East 463 533 39,000  Level Cleveland Center
Mon 11:37:08 PM 42.3769 -82.8739 97° East 463 533 39,000  Level Cleveland Center
Mon 11:38:08 PM 42.3656 -82.7050 95° East 458 527 39,000  Level Cleveland Center
Mon 11:39:08 PM 42.3497 -82.5358 97° East 453 521 39,000  Level Cleveland Center
Mon 11:40:08 PM 42.3381 -82.3697 95° East 453 521 39,000  Level Cleveland Center
Mon 11:41:08 PM 42.3217 -82.2008 97° East 447 514 39,000  Level Cleveland Center
Mon 11:42:08 PM 42.3075 -82.0206 96° East 442 509 39,000  Level Cleveland Center
Mon 11:43:08 PM 42.2947 -81.8519 96° East 448 516 39,000  Level Cleveland Center
Mon 11:44:08 PM 42.2778 -81.6833 98° East 448 516 39,000  Level Cleveland Center
Mon 11:45:08 PM 42.2625 -81.5147 97° East 448 516 39,000  Level Cleveland Center
Mon 11:46:08 PM 42.2472 -81.3489 97° East 443 510 39,000  Level Cleveland Center
Mon 11:47:08 PM 42.2314 -81.1833 97° East 448 516 39,000  Level Cleveland Center
Mon 11:48:08 PM 42.2175 -81.0344 97° East 448 516 39,000  Level Cleveland Center
Mon 11:49:08 PM 42.2014 -80.8633 97° East 448 516 39,000  Level Cleveland Center
Mon 11:50:08 PM 42.1872 -80.6981 97° East 448 516 39,000  Level Cleveland Center
Mon 11:51:08 PM 42.1706 -80.5300 98° East 443 510 39,000  Level Cleveland Center
Mon 11:52:08 PM 42.1536 -80.3675 98° East 444 511 39,000  Level Cleveland Center
Mon 11:53:08 PM 42.1344 -80.1939 98° East 452 520 39,000  Level Cleveland Center
Mon 11:54:08 PM 42.1150 -80.0122 98° East 446 513 39,000  Level Cleveland Center
Mon 11:55:08 PM 42.1017 -79.8639 97° East 451 519 39,000  Level Cleveland Center
Mon 11:56:08 PM 42.0836 -79.6936 98° East 451 519 39,000  Level Cleveland Center
Mon 11:57:08 PM 42.0636 -79.5258 99° East 446 513 39,000  Level Cleveland Center
Mon 11:58:08 PM 42.0453 -79.3614 98° East 446 513 39,000  Level Cleveland Center
Mon 11:59:08 PM 42.0267 -79.1939 98° East 446 513 39,000  Level Cleveland Center
Tue 12:00:08 AM 42.0058 -79.0267 99° East 446 513 39,000  Level Cleveland Center
Tue 12:01:08 AM 41.9889 -78.8650 98° East 446 513 39,000  Level Cleveland Center
Tue 12:02:08 AM 41.9675 -78.6981 100° East 446 513 39,000  Level Cleveland Center
Tue 12:03:08 AM 41.9481 -78.5394 99° East 446 513 39,000  Level Cleveland Center
Tue 12:04:08 AM 41.9306 -78.3753 98° East 446 513 39,000  Level Cleveland Center
Tue 12:05:08 AM 41.9106 -78.2142 99° East 446 513 39,000  Level Cleveland Center
Tue 12:07:05 AM 41.8736 -77.9075 99° East 442 509 39,000  Level New York Center
Tue 12:08:05 AM 41.8392 -77.7478 106° East 442 509 39,000  Level New York Center
Tue 12:09:05 AM 41.7983 -77.5933 109° East 442 509 39,000  Level New York Center
Tue 12:10:02 AM 41.7550 -77.4386 111° Southeast 442 509 39,000  Level New York Center
Tue 12:11:05 AM 41.7158 -77.2819 108° East 442 509 39,000  Level New York Center
Tue 12:12:03 AM 41.6689 -77.1106 110° East 442 509 39,000  Level New York Center
Tue 12:13:04 AM 41.6250 -76.9511 110° East 442 509 39,000  Level New York Center
Tue 12:14:03 AM 41.5811 -76.7944 110° East 442 509 39,000  Level New York Center
Tue 12:15:05 AM 41.5442 -76.6581 110° East 437 503 39,000  Level New York Center
Tue 12:16:04 AM 41.5019 -76.5019 110° East 437 503 39,000  Level New York Center
Tue 12:17:05 AM 41.4539 -76.3289 110° East 443 510 39,000 -595 Level New York Center
Tue 12:18:05 AM 41.4094 -76.1594 109° East 455 524 37,800 -2,100 Descending New York Center
Tue 12:19:05 AM 41.3625 -76.0036 112° Southeast 460 529 34,800 -3,529 Descending New York Center
Tue 12:20:04 AM 41.3172 -75.8453 111° Southeast 455 524 30,800 -3,436 Descending New York Center
Tue 12:21:02 AM 41.2700 -75.6789 111° Southeast 466 536 28,100 -2,628 Descending New York Center
Tue 12:22:05 AM 41.2161 -75.5178 114° Southeast 471 542 25,500 -2,439 Descending New York Center
Tue 12:23:05 AM 41.1619 -75.3650 115° Southeast 466 536 23,100 -1,250 Descending New York Center
Tue 12:24:05 AM 41.1133 -75.2158 113° Southeast 455 524 23,000 -50 Descending New York Center
Tue 12:25:04 AM 41.0606 -75.0639 115° Southeast 455 524 23,000  Level New York Center
Tue 12:26:03 AM 41.0156 -74.9261 113° Southeast 455 524 23,000 -203 Level New York Center
Tue 12:27:02 AM 40.9858 -74.7650 104° East 455 524 22,600 -1,311 Descending New York Center
Tue 12:28:02 AM 40.9681 -74.6044 98° East 450 518 20,400 -1,756 Descending New York Center
Tue 12:29:05 AM 40.9500 -74.4525 99° East 426 490 19,000 -966 Descending New York Center
Tue 12:29:29 AM 40.9500 -74.3667 90° East 417 480 19,000  Level New York TRACON
Tue 12:30:29 AM 40.9167 -74.2333 108° East 361 415 19,000  Level New York TRACON
Tue 12:31:23 AM 40.8667 -74.1333 123° Southeast 367 422 19,000 -684 Level New York TRACON
Tue 12:32:23 AM 40.8000 -74.0333 131° Southeast 360 414 17,700 -1,773 Descending New York TRACON
Tue 12:33:35 AM 40.7333 -73.9000 123° Southeast 359 413 15,100 -1,955 Descending New York TRACON
Tue 12:34:35 AM 40.6667 -73.8000 131° Southeast 310 357 13,400 -1,967 Descending New York TRACON
Tue 12:36:35 AM 40.5167 -73.7167 157° South 277 319 9,200 -2,207 Descending New York TRACON
Tue 12:37:29 AM 40.4667 -73.7667 217° Southwest 275 316 7,000 -2,368 Descending New York TRACON
Tue 12:38:29 AM 40.4167 -73.8333 225° Southwest 265 305 4,700 -1,778 Descending New York TRACON
Tue 12:39:17 AM 40.4000 -73.9000 252° West 270 311 3,800 -803 Descending New York TRACON
Tue 12:40:36 AM 40.4667 -73.9667 323° Northwest 267 307 3,000 -345 Descending New York TRACON
Tue 12:41:36 AM 40.5333 -73.9500 11° North 231 266 3,000 -350 Level New York TRACON
Tue 12:42:36 AM 40.5833 -73.9167 27° Northeast 189 217 2,300 -750 Descending New York TRACON
Tue 12:43:36 AM 40.6167 -73.8833 37° Northeast 149 171 1,500 -800 Descending New York TRACON

Login

Don't have an account? Register now (free) for customized features, flight alerts, and more!